sensor_id;sensor_type;location;lat;lon;timestamp;temperature;humidity
25556;DHT22;13447;57.174;-2.112;2022-10-31T00:01:10;10.30;99.90
25556;DHT22;13447;57.174;-2.112;2022-10-31T00:03:37;10.40;99.90
25556;DHT22;13447;57.174;-2.112;2022-10-31T00:06:04;10.30;99.90
25556;DHT22;13447;57.174;-2.112;2022-10-31T00:08:31;10.40;99.90
25556;DHT22;13447;57.174;-2.112;2022-10-31T00:10:58;10.30;99.90
25556;DHT22;13447;57.174;-2.112;2022-10-31T00:13:25;10.50;99.90
25556;DHT22;13447;57.174;-2.112;2022-10-31T00:15:52;10.60;99.90
25556;DHT22;13447;57.174;-2.112;2022-10-31T00:18:19;10.70;99.90
25556;DHT22;13447;57.174;-2.112;2022-10-31T00:20:45;10.70;99.90
25556;DHT22;13447;57.174;-2.112;2022-10-31T00:23:12;10.60;99.90
25556;DHT22;13447;57.174;-2.112;2022-10-31T00:25:40;10.60;99.90
25556;DHT22;13447;57.174;-2.112;2022-10-31T00:28:08;10.70;99.90
25556;DHT22;13447;57.174;-2.112;2022-10-31T00:30:37;10.70;99.90
25556;DHT22;13447;57.174;-2.112;2022-10-31T00:33:04;10.70;99.90
25556;DHT22;13447;57.174;-2.112;2022-10-31T00:35:32;10.70;99.90
25556;DHT22;13447;57.174;-2.112;2022-10-31T00:37:59;10.80;99.90
25556;DHT22;13447;57.174;-2.112;2022-10-31T00:40:26;10.80;99.90
25556;DHT22;13447;57.174;-2.112;2022-10-31T00:42:53;10.80;99.90
25556;DHT22;13447;57.174;-2.112;2022-10-31T00:45:20;10.70;99.90
25556;DHT22;13447;57.174;-2.112;2022-10-31T00:47:47;10.70;99.90
25556;DHT22;13447;57.174;-2.112;2022-10-31T00:50:14;10.60;99.90
25556;DHT22;13447;57.174;-2.112;2022-10-31T00:52:40;10.60;99.90
25556;DHT22;13447;57.174;-2.112;2022-10-31T00:55:07;10.60;99.90
25556;DHT22;13447;57.174;-2.112;2022-10-31T00:57:34;10.40;99.90
25556;DHT22;13447;57.174;-2.112;2022-10-31T01:00:02;10.40;99.90
25556;DHT22;13447;57.174;-2.112;2022-10-31T01:02:29;10.30;99.90
25556;DHT22;13447;57.174;-2.112;2022-10-31T01:04:56;10.40;99.90
25556;DHT22;13447;57.174;-2.112;2022-10-31T01:07:23;10.30;99.90
25556;DHT22;13447;57.174;-2.112;2022-10-31T01:09:50;10.20;99.90
25556;DHT22;13447;57.174;-2.112;2022-10-31T01:12:16;10.10;99.90
25556;DHT22;13447;57.174;-2.112;2022-10-31T01:14:46;10.10;99.90
25556;DHT22;13447;57.174;-2.112;2022-10-31T01:17:14;10.10;99.90
25556;DHT22;13447;57.174;-2.112;2022-10-31T01:19:41;10.10;99.90
25556;DHT22;13447;57.174;-2.112;2022-10-31T01:22:07;10.20;99.90
25556;DHT22;13447;57.174;-2.112;2022-10-31T01:24:34;10.10;99.90
25556;DHT22;13447;57.174;-2.112;2022-10-31T01:27:01;10.20;99.90
25556;DHT22;13447;57.174;-2.112;2022-10-31T01:29:28;10.50;99.90
25556;DHT22;13447;57.174;-2.112;2022-10-31T01:31:55;10.50;99.90
25556;DHT22;13447;57.174;-2.112;2022-10-31T01:34:22;10.50;99.90
25556;DHT22;13447;57.174;-2.112;2022-10-31T01:36:49;10.60;99.90
25556;DHT22;13447;57.174;-2.112;2022-10-31T01:39:18;10.50;99.90
25556;DHT22;13447;57.174;-2.112;2022-10-31T01:41:50;10.40;99.90
25556;DHT22;13447;57.174;-2.112;2022-10-31T01:46:58;10.30;99.90
25556;DHT22;13447;57.174;-2.112;2022-10-31T01:49:54;10.20;99.90
25556;DHT22;13447;57.174;-2.112;2022-10-31T01:52:51;10.10;99.90
25556;DHT22;13447;57.174;-2.112;2022-10-31T01:57:56;10.30;99.90
25556;DHT22;13447;57.174;-2.112;2022-10-31T02:00:24;10.30;99.90
25556;DHT22;13447;57.174;-2.112;2022-10-31T02:02:51;10.30;99.90
25556;DHT22;13447;57.174;-2.112;2022-10-31T02:05:22;10.30;99.90
25556;DHT22;13447;57.174;-2.112;2022-10-31T02:07:57;10.40;99.90
25556;DHT22;13447;57.174;-2.112;2022-10-31T02:10:25;10.40;99.90
25556;DHT22;13447;57.174;-2.112;2022-10-31T02:12:56;10.50;99.90
25556;DHT22;13447;57.174;-2.112;2022-10-31T02:15:24;10.50;99.90
25556;DHT22;13447;57.174;-2.112;2022-10-31T02:17:51;10.60;99.90
25556;DHT22;13447;57.174;-2.112;2022-10-31T02:20:24;10.60;99.90
25556;DHT22;13447;57.174;-2.112;2022-10-31T02:37:03;10.60;99.90
25556;DHT22;13447;57.174;-2.112;2022-10-31T02:42:40;10.50;99.90
25556;DHT22;13447;57.174;-2.112;2022-10-31T02:45:26;10.40;99.90
25556;DHT22;13447;57.174;-2.112;2022-10-31T02:47:58;10.30;99.90
25556;DHT22;13447;57.174;-2.112;2022-10-31T02:50:31;10.40;99.90
25556;DHT22;13447;57.174;-2.112;2022-10-31T02:53:01;10.40;99.90
25556;DHT22;13447;57.174;-2.112;2022-10-31T02:58:16;10.50;99.90
25556;DHT22;13447;57.174;-2.112;2022-10-31T03:04:22;10.50;99.90
25556;DHT22;13447;57.174;-2.112;2022-10-31T03:07:15;10.70;99.90
25556;DHT22;13447;57.174;-2.112;2022-10-31T03:10:14;10.70;99.90
25556;DHT22;13447;57.174;-2.112;2022-10-31T03:12:59;10.60;99.90
25556;DHT22;13447;57.174;-2.112;2022-10-31T03:15:31;10.70;99.90
25556;DHT22;13447;57.174;-2.112;2022-10-31T03:18:24;10.70;99.90
25556;DHT22;13447;57.174;-2.112;2022-10-31T03:21:41;10.70;99.90
25556;DHT22;13447;57.174;-2.112;2022-10-31T03:23:46;10.70;99.90
25556;DHT22;13447;57.174;-2.112;2022-10-31T03:26:14;10.70;99.90
25556;DHT22;13447;57.174;-2.112;2022-10-31T03:28:50;10.70;99.90
25556;DHT22;13447;57.174;-2.112;2022-10-31T03:31:23;10.60;99.90
25556;DHT22;13447;57.174;-2.112;2022-10-31T03:33:52;10.50;99.90
25556;DHT22;13447;57.174;-2.112;2022-10-31T03:36:21;10.50;99.90
25556;DHT22;13447;57.174;-2.112;2022-10-31T03:38:48;10.50;99.90
25556;DHT22;13447;57.174;-2.112;2022-10-31T03:41:19;10.50;99.90
25556;DHT22;13447;57.174;-2.112;2022-10-31T03:44:09;10.50;99.90
25556;DHT22;13447;57.174;-2.112;2022-10-31T03:46:37;10.40;99.90
25556;DHT22;13447;57.174;-2.112;2022-10-31T03:49:05;10.40;99.90
25556;DHT22;13447;57.174;-2.112;2022-10-31T03:51:43;10.40;99.90
25556;DHT22;13447;57.174;-2.112;2022-10-31T03:54:45;10.40;99.90
25556;DHT22;13447;57.174;-2.112;2022-10-31T04:00:15;10.30;99.90
25556;DHT22;13447;57.174;-2.112;2022-10-31T04:02:47;10.40;99.90
25556;DHT22;13447;57.174;-2.112;2022-10-31T04:05:17;10.30;99.90
25556;DHT22;13447;57.174;-2.112;2022-10-31T04:07:48;10.60;99.90
25556;DHT22;13447;57.174;-2.112;2022-10-31T04:10:16;10.60;99.90
25556;DHT22;13447;57.174;-2.112;2022-10-31T04:12:49;10.50;99.90
25556;DHT22;13447;57.174;-2.112;2022-10-31T04:15:19;10.60;99.90
25556;DHT22;13447;57.174;-2.112;2022-10-31T04:17:49;10.50;99.90
25556;DHT22;13447;57.174;-2.112;2022-10-31T04:20:18;10.50;99.90
25556;DHT22;13447;57.174;-2.112;2022-10-31T04:22:45;10.40;99.90
25556;DHT22;13447;57.174;-2.112;2022-10-31T04:25:12;10.40;99.90
25556;DHT22;13447;57.174;-2.112;2022-10-31T04:27:39;10.40;99.90
25556;DHT22;13447;57.174;-2.112;2022-10-31T04:30:06;10.50;99.90
25556;DHT22;13447;57.174;-2.112;2022-10-31T04:32:33;10.70;99.90
25556;DHT22;13447;57.174;-2.112;2022-10-31T04:35:00;10.60;99.90
25556;DHT22;13447;57.174;-2.112;2022-10-31T04:37:27;10.60;99.90
25556;DHT22;13447;57.174;-2.112;2022-10-31T04:39:54;10.60;99.90
25556;DHT22;13447;57.174;-2.112;2022-10-31T04:42:20;10.60;99.90
25556;DHT22;13447;57.174;-2.112;2022-10-31T04:44:47;10.60;99.90
25556;DHT22;13447;57.174;-2.112;2022-10-31T04:47:14;10.70;99.90
25556;DHT22;13447;57.174;-2.112;2022-10-31T04:49:41;10.70;99.90
25556;DHT22;13447;57.174;-2.112;2022-10-31T04:52:08;10.60;99.90
25556;DHT22;13447;57.174;-2.112;2022-10-31T04:54:35;10.60;99.90
25556;DHT22;13447;57.174;-2.112;2022-10-31T04:57:02;10.60;99.90
25556;DHT22;13447;57.174;-2.112;2022-10-31T04:59:29;10.60;99.90
25556;DHT22;13447;57.174;-2.112;2022-10-31T05:01:56;10.70;99.90
25556;DHT22;13447;57.174;-2.112;2022-10-31T05:04:23;10.60;99.90
25556;DHT22;13447;57.174;-2.112;2022-10-31T05:06:49;10.60;99.90
25556;DHT22;13447;57.174;-2.112;2022-10-31T05:09:16;10.60;99.90
25556;DHT22;13447;57.174;-2.112;2022-10-31T05:11:43;10.50;99.90
25556;DHT22;13447;57.174;-2.112;2022-10-31T05:14:10;10.60;99.90
25556;DHT22;13447;57.174;-2.112;2022-10-31T05:16:37;10.70;99.90
25556;DHT22;13447;57.174;-2.112;2022-10-31T05:19:04;10.70;99.90
25556;DHT22;13447;57.174;-2.112;2022-10-31T05:21:31;10.60;99.90
25556;DHT22;13447;57.174;-2.112;2022-10-31T05:23:57;10.60;99.90
25556;DHT22;13447;57.174;-2.112;2022-10-31T05:26:24;10.60;99.90
25556;DHT22;13447;57.174;-2.112;2022-10-31T05:28:51;10.60;99.90
25556;DHT22;13447;57.174;-2.112;2022-10-31T05:31:18;10.60;99.90
25556;DHT22;13447;57.174;-2.112;2022-10-31T05:33:45;10.70;99.90
25556;DHT22;13447;57.174;-2.112;2022-10-31T05:36:12;10.60;99.90
25556;DHT22;13447;57.174;-2.112;2022-10-31T05:38:39;10.60;99.90
25556;DHT22;13447;57.174;-2.112;2022-10-31T05:41:06;10.60;99.90
25556;DHT22;13447;57.174;-2.112;2022-10-31T05:43:33;10.50;99.90
25556;DHT22;13447;57.174;-2.112;2022-10-31T05:46:00;10.60;99.90
25556;DHT22;13447;57.174;-2.112;2022-10-31T05:48:26;10.70;99.90
25556;DHT22;13447;57.174;-2.112;2022-10-31T05:50:53;10.70;99.90
25556;DHT22;13447;57.174;-2.112;2022-10-31T05:53:20;10.60;99.90
25556;DHT22;13447;57.174;-2.112;2022-10-31T05:55:47;10.80;99.90
25556;DHT22;13447;57.174;-2.112;2022-10-31T05:58:14;10.80;99.90
25556;DHT22;13447;57.174;-2.112;2022-10-31T06:00:41;10.80;99.90
25556;DHT22;13447;57.174;-2.112;2022-10-31T06:03:09;10.70;99.90
25556;DHT22;13447;57.174;-2.112;2022-10-31T06:05:36;10.70;99.90
25556;DHT22;13447;57.174;-2.112;2022-10-31T06:08:03;10.60;99.90
25556;DHT22;13447;57.174;-2.112;2022-10-31T06:10:30;10.60;99.90
25556;DHT22;13447;57.174;-2.112;2022-10-31T06:12:57;10.50;99.90
25556;DHT22;13447;57.174;-2.112;2022-10-31T06:15:24;10.50;99.90
25556;DHT22;13447;57.174;-2.112;2022-10-31T06:18:17;10.40;99.90
25556;DHT22;13447;57.174;-2.112;2022-10-31T06:20:44;10.30;99.90
25556;DHT22;13447;57.174;-2.112;2022-10-31T06:23:11;10.20;99.90
25556;DHT22;13447;57.174;-2.112;2022-10-31T06:25:38;10.30;99.90
25556;DHT22;13447;57.174;-2.112;2022-10-31T06:28:05;10.50;99.90
25556;DHT22;13447;57.174;-2.112;2022-10-31T06:30:32;10.50;99.90
25556;DHT22;13447;57.174;-2.112;2022-10-31T06:33:05;10.80;99.90
25556;DHT22;13447;57.174;-2.112;2022-10-31T06:35:32;11.00;99.90
25556;DHT22;13447;57.174;-2.112;2022-10-31T06:37:59;11.10;99.90
25556;DHT22;13447;57.174;-2.112;2022-10-31T06:40:27;11.10;99.90
25556;DHT22;13447;57.174;-2.112;2022-10-31T06:43:00;11.20;99.90
25556;DHT22;13447;57.174;-2.112;2022-10-31T06:45:27;11.30;99.90
25556;DHT22;13447;57.174;-2.112;2022-10-31T06:47:55;11.40;99.90
25556;DHT22;13447;57.174;-2.112;2022-10-31T06:50:42;11.60;99.90
25556;DHT22;13447;57.174;-2.112;2022-10-31T06:53:09;11.60;99.90
25556;DHT22;13447;57.174;-2.112;2022-10-31T06:55:42;11.70;99.90
25556;DHT22;13447;57.174;-2.112;2022-10-31T06:58:10;11.80;99.90
25556;DHT22;13447;57.174;-2.112;2022-10-31T07:00:37;11.90;99.90
25556;DHT22;13447;57.174;-2.112;2022-10-31T07:03:06;11.80;99.90
25556;DHT22;13447;57.174;-2.112;2022-10-31T07:05:33;11.80;99.90
25556;DHT22;13447;57.174;-2.112;2022-10-31T07:08:04;11.90;99.90
25556;DHT22;13447;57.174;-2.112;2022-10-31T07:10:32;11.90;99.90
25556;DHT22;13447;57.174;-2.112;2022-10-31T07:13:09;12.00;99.90
25556;DHT22;13447;57.174;-2.112;2022-10-31T07:15:38;12.00;99.90
25556;DHT22;13447;57.174;-2.112;2022-10-31T07:18:07;12.00;99.90
25556;DHT22;13447;57.174;-2.112;2022-10-31T07:20:35;12.10;99.90
25556;DHT22;13447;57.174;-2.112;2022-10-31T07:23:02;12.00;99.90
25556;DHT22;13447;57.174;-2.112;2022-10-31T07:25:30;12.10;99.90
25556;DHT22;13447;57.174;-2.112;2022-10-31T07:27:57;12.20;99.90
25556;DHT22;13447;57.174;-2.112;2022-10-31T07:30:25;12.10;99.90
25556;DHT22;13447;57.174;-2.112;2022-10-31T07:32:52;12.10;99.90
25556;DHT22;13447;57.174;-2.112;2022-10-31T07:35:21;12.10;99.90
25556;DHT22;13447;57.174;-2.112;2022-10-31T07:37:49;12.10;99.90
25556;DHT22;13447;57.174;-2.112;2022-10-31T07:40:17;12.10;99.90
25556;DHT22;13447;57.174;-2.112;2022-10-31T07:42:47;12.10;99.90
25556;DHT22;13447;57.174;-2.112;2022-10-31T07:45:18;12.10;99.90
25556;DHT22;13447;57.174;-2.112;2022-10-31T07:47:47;12.10;99.90
25556;DHT22;13447;57.174;-2.112;2022-10-31T07:50:17;12.10;99.90
25556;DHT22;13447;57.174;-2.112;2022-10-31T07:52:44;12.00;99.90
25556;DHT22;13447;57.174;-2.112;2022-10-31T07:55:11;12.00;99.90
25556;DHT22;13447;57.174;-2.112;2022-10-31T07:57:38;12.00;99.90
25556;DHT22;13447;57.174;-2.112;2022-10-31T08:00:07;12.10;99.90
25556;DHT22;13447;57.174;-2.112;2022-10-31T08:02:34;12.20;99.90
25556;DHT22;13447;57.174;-2.112;2022-10-31T08:05:01;12.20;99.90
25556;DHT22;13447;57.174;-2.112;2022-10-31T08:07:29;12.20;99.90
25556;DHT22;13447;57.174;-2.112;2022-10-31T08:09:56;12.20;99.90
25556;DHT22;13447;57.174;-2.112;2022-10-31T08:12:23;12.30;99.90
25556;DHT22;13447;57.174;-2.112;2022-10-31T08:14:50;12.30;99.90
25556;DHT22;13447;57.174;-2.112;2022-10-31T08:17:17;12.30;99.90
25556;DHT22;13447;57.174;-2.112;2022-10-31T08:19:44;12.30;99.90
25556;DHT22;13447;57.174;-2.112;2022-10-31T08:22:11;12.30;99.90
25556;DHT22;13447;57.174;-2.112;2022-10-31T08:24:38;12.40;99.90
25556;DHT22;13447;57.174;-2.112;2022-10-31T08:27:09;12.40;99.90
25556;DHT22;13447;57.174;-2.112;2022-10-31T08:29:36;12.40;99.90
25556;DHT22;13447;57.174;-2.112;2022-10-31T08:32:03;12.40;99.90
25556;DHT22;13447;57.174;-2.112;2022-10-31T08:34:30;12.50;99.90
25556;DHT22;13447;57.174;-2.112;2022-10-31T08:36:57;12.40;99.90
25556;DHT22;13447;57.174;-2.112;2022-10-31T08:39:25;12.50;99.90
25556;DHT22;13447;57.174;-2.112;2022-10-31T08:41:51;12.50;99.90
25556;DHT22;13447;57.174;-2.112;2022-10-31T08:44:18;12.50;99.90
25556;DHT22;13447;57.174;-2.112;2022-10-31T08:46:45;12.50;99.90
25556;DHT22;13447;57.174;-2.112;2022-10-31T08:49:12;12.50;99.90
25556;DHT22;13447;57.174;-2.112;2022-10-31T08:51:39;12.60;99.90
25556;DHT22;13447;57.174;-2.112;2022-10-31T08:54:06;12.50;99.90
25556;DHT22;13447;57.174;-2.112;2022-10-31T08:56:33;12.60;99.90
25556;DHT22;13447;57.174;-2.112;2022-10-31T08:59:00;12.60;99.90
25556;DHT22;13447;57.174;-2.112;2022-10-31T09:01:27;12.60;99.90
25556;DHT22;13447;57.174;-2.112;2022-10-31T09:03:55;12.70;99.90
25556;DHT22;13447;57.174;-2.112;2022-10-31T09:06:22;12.70;99.90
25556;DHT22;13447;57.174;-2.112;2022-10-31T09:08:49;12.70;99.90
25556;DHT22;13447;57.174;-2.112;2022-10-31T09:11:16;12.80;99.90
25556;DHT22;13447;57.174;-2.112;2022-10-31T09:13:42;12.80;99.90
25556;DHT22;13447;57.174;-2.112;2022-10-31T09:16:09;12.70;99.90
25556;DHT22;13447;57.174;-2.112;2022-10-31T09:18:36;12.70;99.90
25556;DHT22;13447;57.174;-2.112;2022-10-31T09:21:04;12.80;99.90
25556;DHT22;13447;57.174;-2.112;2022-10-31T09:23:31;12.70;99.90
25556;DHT22;13447;57.174;-2.112;2022-10-31T09:26:00;12.70;99.90
25556;DHT22;13447;57.174;-2.112;2022-10-31T09:28:27;12.80;99.90
25556;DHT22;13447;57.174;-2.112;2022-10-31T09:30:54;12.70;99.90
25556;DHT22;13447;57.174;-2.112;2022-10-31T09:33:22;12.70;99.90
25556;DHT22;13447;57.174;-2.112;2022-10-31T09:35:49;12.80;99.90
25556;DHT22;13447;57.174;-2.112;2022-10-31T09:38:18;12.80;99.90
25556;DHT22;13447;57.174;-2.112;2022-10-31T09:41:18;12.80;99.90
25556;DHT22;13447;57.174;-2.112;2022-10-31T09:52:13;12.80;99.90
25556;DHT22;13447;57.174;-2.112;2022-10-31T09:54:49;12.90;99.90
25556;DHT22;13447;57.174;-2.112;2022-10-31T09:57:24;13.00;99.90
25556;DHT22;13447;57.174;-2.112;2022-10-31T09:59:52;13.00;99.90
25556;DHT22;13447;57.174;-2.112;2022-10-31T10:02:39;13.10;99.90
25556;DHT22;13447;57.174;-2.112;2022-10-31T10:05:59;13.20;99.90
25556;DHT22;13447;57.174;-2.112;2022-10-31T10:08:21;13.20;99.90
25556;DHT22;13447;57.174;-2.112;2022-10-31T10:19:53;13.40;99.90
25556;DHT22;13447;57.174;-2.112;2022-10-31T10:25:09;13.40;99.90
25556;DHT22;13447;57.174;-2.112;2022-10-31T10:30:42;13.40;99.90
25556;DHT22;13447;57.174;-2.112;2022-10-31T10:33:27;13.30;99.90
25556;DHT22;13447;57.174;-2.112;2022-10-31T10:36:00;13.20;99.90
25556;DHT22;13447;57.174;-2.112;2022-10-31T10:38:38;13.20;99.90
25556;DHT22;13447;57.174;-2.112;2022-10-31T10:41:14;13.10;99.90
25556;DHT22;13447;57.174;-2.112;2022-10-31T10:43:42;13.20;99.90
25556;DHT22;13447;57.174;-2.112;2022-10-31T10:49:21;13.20;99.90
25556;DHT22;13447;57.174;-2.112;2022-10-31T10:51:58;13.20;99.90
25556;DHT22;13447;57.174;-2.112;2022-10-31T10:57:58;13.10;99.90
25556;DHT22;13447;57.174;-2.112;2022-10-31T11:00:30;13.20;99.90
25556;DHT22;13447;57.174;-2.112;2022-10-31T11:02:58;13.30;99.90
25556;DHT22;13447;57.174;-2.112;2022-10-31T11:05:48;13.70;99.90
25556;DHT22;13447;57.174;-2.112;2022-10-31T11:08:34;14.20;99.90
25556;DHT22;13447;57.174;-2.112;2022-10-31T11:11:05;14.90;99.90
25556;DHT22;13447;57.174;-2.112;2022-10-31T11:13:35;15.20;99.90
25556;DHT22;13447;57.174;-2.112;2022-10-31T11:16:07;15.10;99.90
25556;DHT22;13447;57.174;-2.112;2022-10-31T11:18:38;14.80;99.90
25556;DHT22;13447;57.174;-2.112;2022-10-31T11:21:09;14.90;99.90
25556;DHT22;13447;57.174;-2.112;2022-10-31T11:23:45;14.60;99.90
25556;DHT22;13447;57.174;-2.112;2022-10-31T11:26:20;14.30;99.90
25556;DHT22;13447;57.174;-2.112;2022-10-31T11:28:59;14.30;99.90
25556;DHT22;13447;57.174;-2.112;2022-10-31T11:31:27;14.60;99.90
25556;DHT22;13447;57.174;-2.112;2022-10-31T11:33:59;14.50;99.90
25556;DHT22;13447;57.174;-2.112;2022-10-31T11:36:30;15.10;99.90
25556;DHT22;13447;57.174;-2.112;2022-10-31T11:38:59;15.10;99.90
25556;DHT22;13447;57.174;-2.112;2022-10-31T11:41:37;15.10;99.90
25556;DHT22;13447;57.174;-2.112;2022-10-31T11:44:21;15.40;99.90
25556;DHT22;13447;57.174;-2.112;2022-10-31T11:46:57;15.50;99.90
25556;DHT22;13447;57.174;-2.112;2022-10-31T11:49:35;15.80;99.90
25556;DHT22;13447;57.174;-2.112;2022-10-31T11:52:07;16.00;99.90
25556;DHT22;13447;57.174;-2.112;2022-10-31T11:54:48;16.20;99.90
25556;DHT22;13447;57.174;-2.112;2022-10-31T11:57:23;15.90;99.90
25556;DHT22;13447;57.174;-2.112;2022-10-31T11:59:55;16.10;99.90
25556;DHT22;13447;57.174;-2.112;2022-10-31T12:02:23;15.40;99.90
25556;DHT22;13447;57.174;-2.112;2022-10-31T12:05:18;15.50;99.90
25556;DHT22;13447;57.174;-2.112;2022-10-31T12:07:47;15.20;99.90
25556;DHT22;13447;57.174;-2.112;2022-10-31T12:10:15;14.70;99.90
25556;DHT22;13447;57.174;-2.112;2022-10-31T12:18:00;14.50;99.90
25556;DHT22;13447;57.174;-2.112;2022-10-31T12:20:51;14.70;99.90
25556;DHT22;13447;57.174;-2.112;2022-10-31T12:35:19;14.30;99.90
25556;DHT22;13447;57.174;-2.112;2022-10-31T12:40:53;14.10;99.90
25556;DHT22;13447;57.174;-2.112;2022-10-31T12:45:57;14.00;99.90
25556;DHT22;13447;57.174;-2.112;2022-10-31T12:51:15;14.00;99.90
25556;DHT22;13447;57.174;-2.112;2022-10-31T12:54:38;14.00;99.90
25556;DHT22;13447;57.174;-2.112;2022-10-31T12:56:54;13.90;99.90
25556;DHT22;13447;57.174;-2.112;2022-10-31T12:59:30;13.70;99.90
25556;DHT22;13447;57.174;-2.112;2022-10-31T13:10:45;13.60;99.90
25556;DHT22;13447;57.174;-2.112;2022-10-31T13:13:35;13.70;99.90
25556;DHT22;13447;57.174;-2.112;2022-10-31T13:16:18;13.60;99.90
25556;DHT22;13447;57.174;-2.112;2022-10-31T13:24:26;13.50;99.90
25556;DHT22;13447;57.174;-2.112;2022-10-31T13:26:57;13.50;99.90
25556;DHT22;13447;57.174;-2.112;2022-10-31T13:29:32;13.50;99.90
25556;DHT22;13447;57.174;-2.112;2022-10-31T13:32:04;13.60;99.90
25556;DHT22;13447;57.174;-2.112;2022-10-31T13:34:42;13.70;99.90
25556;DHT22;13447;57.174;-2.112;2022-10-31T13:37:15;13.70;99.90
25556;DHT22;13447;57.174;-2.112;2022-10-31T13:40:03;13.70;99.90
25556;DHT22;13447;57.174;-2.112;2022-10-31T13:45:52;13.90;99.90
25556;DHT22;13447;57.174;-2.112;2022-10-31T13:48:36;13.90;99.90
25556;DHT22;13447;57.174;-2.112;2022-10-31T13:51:09;13.90;99.90
25556;DHT22;13447;57.174;-2.112;2022-10-31T13:53:43;13.90;99.90
25556;DHT22;13447;57.174;-2.112;2022-10-31T13:56:17;13.90;99.90
25556;DHT22;13447;57.174;-2.112;2022-10-31T14:01:27;13.90;99.90
25556;DHT22;13447;57.174;-2.112;2022-10-31T14:09:29;13.70;99.90
25556;DHT22;13447;57.174;-2.112;2022-10-31T14:12:11;13.60;99.90
25556;DHT22;13447;57.174;-2.112;2022-10-31T14:14:46;13.60;99.90
25556;DHT22;13447;57.174;-2.112;2022-10-31T14:17:26;13.70;99.90
25556;DHT22;13447;57.174;-2.112;2022-10-31T14:22:48;13.50;99.90
25556;DHT22;13447;57.174;-2.112;2022-10-31T14:27:52;13.50;99.90
25556;DHT22;13447;57.174;-2.112;2022-10-31T14:30:25;13.40;99.90
25556;DHT22;13447;57.174;-2.112;2022-10-31T14:33:02;13.40;99.90
25556;DHT22;13447;57.174;-2.112;2022-10-31T14:36:03;13.40;99.90
25556;DHT22;13447;57.174;-2.112;2022-10-31T14:41:16;13.40;99.90
25556;DHT22;13447;57.174;-2.112;2022-10-31T14:44:08;13.50;99.90
25556;DHT22;13447;57.174;-2.112;2022-10-31T14:49:44;13.40;99.90
25556;DHT22;13447;57.174;-2.112;2022-10-31T14:52:17;13.40;99.90
25556;DHT22;13447;57.174;-2.112;2022-10-31T14:54:50;13.40;99.90
25556;DHT22;13447;57.174;-2.112;2022-10-31T14:57:23;13.40;99.90
25556;DHT22;13447;57.174;-2.112;2022-10-31T14:59:55;13.40;99.90
25556;DHT22;13447;57.174;-2.112;2022-10-31T15:02:33;13.40;99.90
25556;DHT22;13447;57.174;-2.112;2022-10-31T15:05:11;13.40;99.90
25556;DHT22;13447;57.174;-2.112;2022-10-31T15:07:51;13.40;99.90
25556;DHT22;13447;57.174;-2.112;2022-10-31T15:10:30;13.40;99.90
25556;DHT22;13447;57.174;-2.112;2022-10-31T15:16:47;13.40;99.90
25556;DHT22;13447;57.174;-2.112;2022-10-31T15:19:20;13.40;99.90
25556;DHT22;13447;57.174;-2.112;2022-10-31T15:21:50;13.40;99.90
25556;DHT22;13447;57.174;-2.112;2022-10-31T15:24:18;13.40;99.90
25556;DHT22;13447;57.174;-2.112;2022-10-31T15:26:50;13.40;99.90
25556;DHT22;13447;57.174;-2.112;2022-10-31T15:29:20;13.40;99.90
25556;DHT22;13447;57.174;-2.112;2022-10-31T15:31:54;13.40;99.90
25556;DHT22;13447;57.174;-2.112;2022-10-31T15:36:51;13.40;99.90
25556;DHT22;13447;57.174;-2.112;2022-10-31T15:39:18;13.40;99.90
25556;DHT22;13447;57.174;-2.112;2022-10-31T15:41:52;13.30;99.90
25556;DHT22;13447;57.174;-2.112;2022-10-31T15:44:32;13.30;99.90
25556;DHT22;13447;57.174;-2.112;2022-10-31T15:47:03;13.30;99.90
25556;DHT22;13447;57.174;-2.112;2022-10-31T15:49:39;13.20;99.90
25556;DHT22;13447;57.174;-2.112;2022-10-31T15:54:48;13.20;99.90
25556;DHT22;13447;57.174;-2.112;2022-10-31T15:57:17;13.20;99.90
25556;DHT22;13447;57.174;-2.112;2022-10-31T15:59:47;13.10;99.90
25556;DHT22;13447;57.174;-2.112;2022-10-31T16:02:18;13.10;99.90
25556;DHT22;13447;57.174;-2.112;2022-10-31T16:05:14;13.10;99.90
25556;DHT22;13447;57.174;-2.112;2022-10-31T16:07:48;13.10;99.90
25556;DHT22;13447;57.174;-2.112;2022-10-31T16:10:26;13.10;99.90
25556;DHT22;13447;57.174;-2.112;2022-10-31T16:12:54;13.00;99.90
25556;DHT22;13447;57.174;-2.112;2022-10-31T16:15:21;13.10;99.90
25556;DHT22;13447;57.174;-2.112;2022-10-31T16:17:50;13.10;99.90
25556;DHT22;13447;57.174;-2.112;2022-10-31T16:20:50;13.10;99.90
25556;DHT22;13447;57.174;-2.112;2022-10-31T16:23:19;13.10;99.90
25556;DHT22;13447;57.174;-2.112;2022-10-31T16:25:48;13.20;99.90
25556;DHT22;13447;57.174;-2.112;2022-10-31T16:28:21;13.20;99.90
25556;DHT22;13447;57.174;-2.112;2022-10-31T16:30:55;13.20;99.90
25556;DHT22;13447;57.174;-2.112;2022-10-31T16:35:50;13.10;99.90
25556;DHT22;13447;57.174;-2.112;2022-10-31T16:38:29;13.10;99.90
25556;DHT22;13447;57.174;-2.112;2022-10-31T16:40:56;13.10;99.90
25556;DHT22;13447;57.174;-2.112;2022-10-31T16:43:23;13.10;99.90
25556;DHT22;13447;57.174;-2.112;2022-10-31T16:45:51;13.00;99.90
25556;DHT22;13447;57.174;-2.112;2022-10-31T16:48:20;13.00;99.90
25556;DHT22;13447;57.174;-2.112;2022-10-31T16:50:49;13.00;99.90
25556;DHT22;13447;57.174;-2.112;2022-10-31T16:53:17;12.90;99.90
25556;DHT22;13447;57.174;-2.112;2022-10-31T16:56:04;12.90;99.90
25556;DHT22;13447;57.174;-2.112;2022-10-31T16:58:33;12.90;99.90
25556;DHT22;13447;57.174;-2.112;2022-10-31T17:01:05;13.00;99.90
25556;DHT22;13447;57.174;-2.112;2022-10-31T17:03:33;12.90;99.90
25556;DHT22;13447;57.174;-2.112;2022-10-31T17:06:00;12.90;99.90
25556;DHT22;13447;57.174;-2.112;2022-10-31T17:08:27;12.90;99.90
25556;DHT22;13447;57.174;-2.112;2022-10-31T17:10:55;13.00;99.90
25556;DHT22;13447;57.174;-2.112;2022-10-31T17:13:25;13.00;99.90
25556;DHT22;13447;57.174;-2.112;2022-10-31T17:15:55;12.90;99.90
25556;DHT22;13447;57.174;-2.112;2022-10-31T17:18:22;13.00;99.90
25556;DHT22;13447;57.174;-2.112;2022-10-31T17:20:58;13.00;99.90
25556;DHT22;13447;57.174;-2.112;2022-10-31T17:23:26;13.00;99.90
25556;DHT22;13447;57.174;-2.112;2022-10-31T17:25:55;13.00;99.90
25556;DHT22;13447;57.174;-2.112;2022-10-31T17:28:21;13.00;99.90
25556;DHT22;13447;57.174;-2.112;2022-10-31T17:30:48;13.00;99.90
25556;DHT22;13447;57.174;-2.112;2022-10-31T17:33:16;13.00;99.90
25556;DHT22;13447;57.174;-2.112;2022-10-31T17:35:43;13.00;99.90
25556;DHT22;13447;57.174;-2.112;2022-10-31T17:38:11;13.00;99.90
25556;DHT22;13447;57.174;-2.112;2022-10-31T17:40:39;13.10;99.90
25556;DHT22;13447;57.174;-2.112;2022-10-31T17:43:09;13.10;99.90
25556;DHT22;13447;57.174;-2.112;2022-10-31T17:45:38;13.10;99.90
25556;DHT22;13447;57.174;-2.112;2022-10-31T17:48:06;13.00;99.90
25556;DHT22;13447;57.174;-2.112;2022-10-31T17:50:33;13.00;99.90
25556;DHT22;13447;57.174;-2.112;2022-10-31T17:53:00;13.00;99.90
25556;DHT22;13447;57.174;-2.112;2022-10-31T17:55:28;12.90;99.90